Time;durP1;ratioP1;P1;durP2;ratioP2;P2;SDS_P1;SDS_P2;PMS_P1;PMS_P2;Temp;Humidity;BMP_temperature;BMP_pressure;BME280_temperature;BME280_humidity;BME280_pressure;Samples;Min_cycle;Max_cycle;Signal;HPM_P1;HPM_P2
2022/07/03 00:01:53;;;;;;;2.65;1.48;;;;;;;-146.64;100.00;96018.25;5010822;28;20029;-79
2022/07/03 00:04:20;;;;;;;6.50;1.53;;;;;;;-146.64;100.00;101070.00;5020838;28;20038;-79
2022/07/03 00:06:46;;;;;;;4.75;1.92;;;;;;;-146.64;100.00;100803.97;5021434;28;20073;-78
2022/07/03 00:09:12;;;;;;;2.03;1.70;;;;;;;-146.64;100.00;102400.44;5004502;28;20250;-78
2022/07/03 00:11:37;;;;;;;2.80;1.43;;;;;;;-146.64;100.00;100005.94;5015975;28;20453;-79
2022/07/03 00:14:03;;;;;;;4.10;1.53;;;;;;;-146.64;100.00;102134.31;5017799;28;20029;-80
2022/07/03 00:16:29;;;;;;;2.63;1.33;;;;;;;-146.64;100.00;102134.31;5016168;28;20041;-78
2022/07/03 00:18:55;;;;;;;3.63;1.57;;;;;;;-146.64;100.00;101602.13;5013254;28;20041;-78
2022/07/03 00:21:31;;;;;;;5.35;1.50;;;;;;;-146.64;100.00;103465.13;4998411;28;20477;-80
2022/07/03 00:24:16;;;;;;;3.63;1.50;;;;;;;-146.64;100.00;101336.06;5010627;28;20378;-78
2022/07/03 00:26:44;;;;;;;4.03;1.67;;;;;;;-146.64;100.00;106128.03;5012642;28;20033;-79
2022/07/03 00:29:10;;;;;;;5.38;1.45;;;;;;;-146.64;100.00;105329.00;5002083;28;20023;-79
2022/07/03 00:31:35;;;;;;;2.33;1.35;;;;;;;-146.64;100.00;107993.13;5013268;28;20104;-79
2022/07/03 00:34:02;;;;;;;3.83;1.67;;;;;;;-146.64;100.00;107460.16;5001600;28;20029;-79
2022/07/03 00:36:36;;;;;;;3.72;1.50;;;;;;;-146.64;100.00;108792.72;5018430;28;20061;-78
2022/07/03 00:39:04;;;;;;;6.43;1.50;;;;;;;-146.64;100.00;110659.00;5011018;28;20158;-80
2022/07/03 00:41:32;;;;;;;1.98;1.50;;;;;;;-146.64;100.00;110392.34;5003287;28;20030;-78
2022/07/03 00:43:59;;;;;;;1.63;1.20;;;;;;;-146.64;100.00;110392.34;4994640;28;20041;-80
2022/07/03 00:46:27;;;;;;;3.83;1.40;;;;;;;-146.64;100.00;111192.41;5023841;28;20022;-79
2022/07/03 00:48:55;;;;;;;2.15;1.35;;;;;;;-146.64;100.00;110659.00;5025004;28;20026;-79
2022/07/03 00:51:25;;;;;;;3.67;1.33;;;;;;;-146.64;100.00;109592.44;5006248;28;20050;-79
2022/07/03 00:53:53;;;;;;;4.68;1.70;;;;;;;-146.64;100.00;110392.34;5024294;28;20042;-79
2022/07/03 00:56:26;;;;;;;6.28;1.15;;;;;;;-146.64;100.00;108259.63;5024969;28;20064;-78
2022/07/03 00:58:56;;;;;;;1.30;1.13;;;;;;;-146.64;100.00;110392.34;5005195;28;20089;-79
2022/07/03 01:01:32;;;;;;;2.63;1.48;;;;;;;-146.64;100.00;110392.34;4999166;28;20018;-79
2022/07/03 01:04:11;;;;;;;2.50;1.40;;;;;;;-146.64;100.00;111192.41;4979248;28;20117;-79
2022/07/03 01:06:40;;;;;;;3.10;1.13;;;;;;;-146.64;100.00;110925.69;5006655;28;20022;-79
2022/07/03 01:09:06;;;;;;;7.05;1.63;;;;;;;-146.64;100.00;108259.63;5003689;28;20042;-80
2022/07/03 01:11:48;;;;;;;4.50;1.50;;;;;;;-146.64;100.00;108792.72;5011006;28;20029;-79
2022/07/03 01:14:13;;;;;;;2.80;1.15;;;;;;;-146.64;100.00;105861.69;5000318;28;20204;-79
2022/07/03 01:17:08;;;;;;;1.17;1.07;;;;;;;-146.64;100.00;105861.69;5001822;28;20117;-80
2022/07/03 01:19:38;;;;;;;3.40;1.30;;;;;;;-146.64;100.00;105062.66;4989309;28;20052;-80
2022/07/03 01:22:28;;;;;;;3.50;0.80;;;;;;;-146.64;100.00;104263.81;5007426;28;20153;-79
2022/07/03 01:25:29;;;;;;;2.45;1.13;;;;;;;-146.64;100.00;101602.13;4989663;28;20029;-80
2022/07/03 01:28:08;;;;;;;5.05;1.92;;;;;;;-146.64;100.00;98942.19;4992104;28;20100;-78
2022/07/03 01:30:38;;;;;;;4.30;1.40;;;;;;;-146.64;100.00;97612.84;5010806;28;20033;-79
2022/07/03 01:33:09;;;;;;;2.65;1.10;;;;;;;-146.64;100.00;97612.84;5001025;28;20057;-79
2022/07/03 01:35:40;;;;;;;3.13;1.25;;;;;;;-146.64;100.00;91503.59;4993494;28;20049;-79
2022/07/03 01:38:11;;;;;;;5.03;1.15;;;;;;;-146.64;100.00;87524.28;4990862;28;20036;-78
2022/07/03 01:40:39;;;;;;;2.92;1.20;;;;;;;-146.64;100.00;89115.53;4993542;28;20111;-78
2022/07/03 01:43:07;;;;;;;2.08;1.20;;;;;;;-146.64;100.00;89380.81;5000199;28;20035;-79
2022/07/03 01:45:37;;;;;;;3.50;1.40;;;;;;;-146.64;100.00;88054.63;4984192;28;20027;-78
2022/07/03 01:48:05;;;;;;;7.07;1.00;;;;;;;-146.64;100.00;85403.56;4987985;28;20073;-79
2022/07/03 01:50:32;;;;;;;5.32;0.82;;;;;;;-146.64;100.00;85403.56;5010656;28;20044;-78
2022/07/03 01:53:01;;;;;;;4.10;0.90;;;;;;;-146.64;100.00;85138.56;4993631;28;20029;-78
2022/07/03 01:55:31;;;;;;;4.63;0.98;;;;;;;-146.64;100.00;85403.56;5009135;28;20030;-78
2022/07/03 01:57:58;;;;;;;4.13;0.93;;;;;;;-146.64;100.00;85403.56;5010323;28;20029;-78
2022/07/03 02:00:24;;;;;;;3.10;1.00;;;;;;;-146.64;100.00;86728.88;5010442;28;20036;-78
2022/07/03 02:03:01;;;;;;;2.53;0.90;;;;;;;-146.64;100.00;85403.56;5001805;28;20466;-78
2022/07/03 02:05:44;;;;;;;3.22;0.88;;;;;;;-146.64;100.00;87524.28;4986152;28;20070;-78
2022/07/03 02:08:24;;;;;;;2.85;1.00;;;;;;;-146.64;100.00;87789.44;4990641;28;20049;-78
2022/07/03 02:11:15;;;;;;;4.13;0.93;;;;;;;-146.64;100.00;88054.63;5007640;28;20037;-78
2022/07/03 02:13:47;;;;;;;3.55;0.88;;;;;;;-146.64;100.00;88054.63;5008462;28;20706;-78
2022/07/03 02:16:18;;;;;;;2.88;0.95;;;;;;;-146.64;100.00;89380.81;5011065;28;20029;-78
2022/07/03 02:18:50;;;;;;;4.18;0.98;;;;;;;-146.64;100.00;91238.19;4998979;28;20036;-78
2022/07/03 02:21:20;;;;;;;1.20;1.10;;;;;;;-146.64;100.00;92299.94;5009032;28;20045;-78
2022/07/03 02:24:08;;;;;;;4.35;0.82;;;;;;;-146.64;100.00;92830.91;4993323;28;20118;-78
2022/07/03 02:26:38;;;;;;;7.88;0.95;;;;;;;-146.64;100.00;94424.25;5006716;28;20041;-78
2022/07/03 02:29:05;;;;;;;3.92;0.65;;;;;;;-146.64;100.00;94158.66;5006673;28;20354;-79
2022/07/03 02:31:59;;;;;;;4.60;0.95;;;;;;;-146.64;100.00;94689.88;4992438;28;20219;-79
2022/07/03 02:34:24;;;;;;;3.45;1.15;;;;;;;-146.64;100.00;96549.72;5001377;28;20038;-78
2022/07/03 02:36:52;;;;;;;4.20;1.43;;;;;;;-146.64;100.00;96815.47;4986383;28;20026;-78
2022/07/03 02:39:29;;;;;;;3.95;0.85;;;;;;;-146.64;100.00;98144.53;5014326;28;20041;-78
2022/07/03 02:42:11;;;;;;;2.58;0.80;;;;;;;-146.64;100.00;100271.94;5003149;28;20033;-78
2022/07/03 02:44:42;;;;;;;5.18;0.85;;;;;;;-146.64;100.00;99739.97;4988827;28;20057;-77
2022/07/03 02:47:42;;;;;;;3.08;0.93;;;;;;;-146.64;100.00;100005.94;5003558;28;20033;-77
2022/07/03 02:50:10;;;;;;;2.47;1.00;;;;;;;-146.64;100.00;101602.13;4984381;28;20088;-78
2022/07/03 02:52:45;;;;;;;2.17;1.00;;;;;;;-146.64;100.00;102932.75;4996551;28;20045;-78
2022/07/03 02:55:35;;;;;;;4.78;1.25;;;;;;;-146.64;100.00;103465.13;5007468;28;20053;-78
2022/07/03 02:58:25;;;;;;;2.78;0.90;;;;;;;-146.64;100.00;102932.75;5002435;28;20034;-78
2022/07/03 03:01:49;;;;;;;1.55;0.70;;;;;;;-146.64;100.00;103198.94;5013463;28;20037;-77
2022/07/03 03:04:26;;;;;;;5.28;0.85;;;;;;;-146.64;100.00;103731.34;4947858;28;20039;-78
2022/07/03 03:06:55;;;;;;;8.05;1.15;;;;;;;-146.64;100.00;104263.81;5004360;28;20491;-78
2022/07/03 03:09:26;;;;;;;6.30;0.93;;;;;;;-146.64;100.00;103731.34;5007268;28;20046;-78
2022/07/03 03:11:52;;;;;;;4.38;1.25;;;;;;;-146.64;100.00;103465.13;4992817;28;20045;-78
2022/07/03 03:14:21;;;;;;;3.57;1.10;;;;;;;-146.64;100.00;102932.75;5002457;28;20052;-78
2022/07/03 03:16:50;;;;;;;4.38;1.10;;;;;;;-146.64;100.00;104796.38;5009762;28;20025;-78
2022/07/03 03:19:20;;;;;;;3.38;1.10;;;;;;;-146.64;100.00;104796.38;5006612;28;20081;-78
2022/07/03 03:21:56;;;;;;;5.80;1.10;;;;;;;-146.64;100.00;105595.31;4994563;28;20038;-77
2022/07/03 03:24:22;;;;;;;3.95;1.02;;;;;;;-146.64;100.00;105861.69;5011360;28;20068;-78
2022/07/03 03:26:47;;;;;;;5.40;1.53;;;;;;;-146.64;100.00;105595.31;4995780;28;20034;-78
2022/07/03 03:29:14;;;;;;;4.80;1.13;;;;;;;-146.64;100.00;104530.09;4999729;28;20283;-78
2022/07/03 03:31:41;;;;;;;2.40;0.90;;;;;;;-146.64;100.00;104796.38;4992183;28;20123;-78
2022/07/03 03:34:06;;;;;;;;;;;;;;;-146.64;100.00;105595.31;4993808;28;20041;-78
2022/07/03 03:36:31;;;;;;;3.22;1.33;;;;;;;-146.64;100.00;105062.66;5002599;28;19921;-78
2022/07/03 03:38:57;;;;;;;6.30;1.27;;;;;;;-146.64;100.00;105861.69;5012028;28;20034;-78
2022/07/03 03:41:22;;;;;;;7.13;1.43;;;;;;;-146.64;100.00;106660.84;5022200;28;20084;-78
2022/07/03 03:43:48;;;;;;;5.47;1.10;;;;;;;-146.64;100.00;106660.84;5023164;28;20069;-77
2022/07/03 03:46:14;;;;;;;5.50;1.20;;;;;;;-146.64;100.00;106660.84;5017184;28;20106;-78
2022/07/03 03:48:40;;;;;;;6.15;1.50;;;;;;;-146.64;100.00;107193.69;5021427;28;20034;-78
2022/07/03 03:51:07;;;;;;;4.60;1.30;;;;;;;-146.64;100.00;106927.25;5017045;28;20037;-78
2022/07/03 03:53:32;;;;;;;;;;;;;;;-146.64;100.00;107726.63;5012551;28;20029;-78
2022/07/03 03:56:06;;;;;;;4.03;1.10;;;;;;;-146.64;100.00;107193.69;4995393;28;19925;-78
2022/07/03 03:58:33;;;;;;;5.47;1.17;;;;;;;-146.64;100.00;106927.25;4997241;28;20037;-78
2022/07/03 04:01:00;;;;;;;2.45;1.30;;;;;;;-146.64;100.00;107193.69;5011398;28;20038;-79
2022/07/03 04:03:25;;;;;;;;;;;;;;;-146.64;100.00;107193.69;4996060;28;20041;-79
2022/07/03 04:05:51;;;;;;;8.48;1.20;;;;;;;-146.64;100.00;106927.25;4999073;28;20305;-78
2022/07/03 04:08:18;;;;;;;4.05;1.10;;;;;;;-146.64;100.00;107726.63;5008844;28;20030;-78
2022/07/03 04:10:43;;;;;;;6.82;1.50;;;;;;;-146.64;100.00;107460.16;4999653;28;20030;-78
2022/07/03 04:13:09;;;;;;;7.20;2.00;;;;;;;-146.64;100.00;108526.16;5002929;28;20095;-78
2022/07/03 04:15:34;;;;;;;6.10;1.10;;;;;;;-146.64;100.00;108526.16;4993124;28;20058;-78
2022/07/03 04:17:59;;;;;;;7.73;1.90;;;;;;;-146.64;100.00;109325.84;5000783;28;20030;-79
2022/07/03 04:20:25;;;;;;;2.30;1.30;;;;;;;-146.64;100.00;109325.84;5012045;28;20517;-79
2022/07/03 04:22:51;;;;;;;7.87;1.67;;;;;;;-146.64;100.00;109325.84;4991293;28;20546;-78
2022/07/03 04:25:17;;;;;;;4.10;1.27;;;;;;;-146.64;100.00;109859.06;5011132;28;20032;-78
2022/07/03 04:27:43;;;;;;;6.03;1.20;;;;;;;-146.64;100.00;109592.44;5006618;28;20038;-78
2022/07/03 04:30:10;;;;;;;3.63;1.47;;;;;;;-146.64;100.00;110392.34;4993866;28;20401;-79
2022/07/03 04:32:38;;;;;;;;;;;;;;;-146.64;100.00;109592.44;4989785;28;20026;-79
2022/07/03 04:35:04;;;;;;;5.70;1.30;;;;;;;-146.64;100.00;108526.16;5012966;28;19971;-80
2022/07/03 04:37:29;;;;;;;3.20;1.30;;;;;;;-146.64;100.00;108526.16;5006512;28;20061;-79
2022/07/03 04:39:55;;;;;;;6.37;1.37;;;;;;;-146.64;100.00;108792.72;4989682;28;20510;-79
2022/07/03 04:42:20;;;;;;;4.47;1.23;;;;;;;-146.64;100.00;109059.28;4993706;28;20061;-79
2022/07/03 04:44:47;;;;;;;6.97;1.73;;;;;;;-146.64;100.00;108792.72;5010372;28;20095;-79
2022/07/03 04:47:16;;;;;;;3.58;1.33;;;;;;;-146.64;100.00;109059.28;4990382;28;20074;-79
2022/07/03 04:49:42;;;;;;;5.10;1.55;;;;;;;-146.64;100.00;109059.28;5009128;28;20034;-79
2022/07/03 04:52:08;;;;;;;5.70;1.80;;;;;;;-146.64;100.00;108792.72;5001765;28;20510;-79
2022/07/03 04:54:33;;;;;;;6.75;1.70;;;;;;;-146.64;100.00;108259.63;5009091;28;20037;-79
2022/07/03 04:56:59;;;;;;;6.37;1.50;;;;;;;-146.64;100.00;107193.69;4980560;28;20041;-79
2022/07/03 04:59:24;;;;;;;5.53;1.17;;;;;;;-146.64;100.00;106128.03;4993646;28;20037;-79
2022/07/03 05:01:50;;;;;;;6.87;1.70;;;;;;;-146.64;100.00;104530.09;5008604;28;20374;-79
2022/07/03 05:04:18;;;;;;;10.33;1.50;;;;;;;-146.64;100.00;105062.66;5002485;28;20084;-79
2022/07/03 05:06:44;;;;;;;4.57;1.35;;;;;;;-146.64;100.00;102932.75;4981299;28;20030;-79
2022/07/03 05:09:09;;;;;;;5.27;1.40;;;;;;;-146.64;100.00;103465.13;4992278;28;20041;-79
2022/07/03 05:11:35;;;;;;;4.20;1.37;;;;;;;-146.64;100.00;102666.59;4992921;28;20022;-78
2022/07/03 05:14:03;;;;;;;6.47;1.30;;;;;;;-146.64;100.00;99474.03;4993023;28;20454;-79
2022/07/03 05:16:29;;;;;;;6.38;1.35;;;;;;;-146.64;100.00;98144.53;4984546;28;20058;-77
2022/07/03 05:18:54;;;;;;;8.00;1.40;;;;;;;-146.64;100.00;97347.03;4999293;28;20021;-79
2022/07/03 05:21:19;;;;;;;5.53;1.80;;;;;;;-146.64;100.00;92034.47;5020265;28;20034;-79
2022/07/03 05:23:45;;;;;;;3.17;1.60;;;;;;;-146.64;100.00;92299.94;5008110;28;20030;-78
2022/07/03 05:26:10;;;;;;;7.53;1.53;;;;;;;-146.64;100.00;94955.53;5002581;28;20124;-79
2022/07/03 05:28:36;;;;;;;3.47;1.37;;;;;;;-146.64;100.00;86463.78;4993401;28;20061;-77
2022/07/03 05:31:01;;;;;;;3.33;1.40;;;;;;;-146.64;100.00;89380.81;4989769;28;20026;-78
2022/07/03 05:33:26;;;;;;;5.00;1.50;;;;;;;-146.64;100.00;84873.56;4993251;28;20097;-78
2022/07/03 05:35:54;;;;;;;6.20;2.20;;;;;;;-146.64;100.00;52412.72;4988151;28;20515;-78
2022/07/03 05:41:03;;;;;;;8.50;1.60;;;;;;;-146.64;100.00;35671.97;4997336;28;20472;-79
2022/07/03 05:43:29;;;;;;;7.43;1.57;;;;;;;-146.64;100.00;39219.09;5009504;28;20034;-78
2022/07/03 05:45:54;;;;;;;7.30;2.07;;;;;;;-146.64;100.00;38400.56;4989438;28;20034;-79
2022/07/03 05:48:20;;;;;;;7.83;1.60;;;;;;;-146.64;100.00;35651.53;5008409;28;20026;-78
2022/07/03 05:50:48;;;;;;;9.43;1.70;;;;;;;-146.64;100.00;35880.53;4993075;28;20042;-79
2022/07/03 05:53:14;;;;;;;6.65;2.47;;;;;;;-146.64;100.00;36359.06;4985896;28;20023;-79
2022/07/03 05:55:39;;;;;;;5.43;1.60;;;;;;;-146.64;100.00;50614.38;5006554;28;20457;-79
2022/07/03 05:58:04;;;;;;;5.47;1.67;;;;;;;-146.64;100.00;56883.47;5000204;28;20025;-79
2022/07/03 06:00:30;;;;;;;9.90;1.97;;;;;;;-146.64;100.00;69006.03;4989171;28;20118;-77
2022/07/03 06:02:55;;;;;;;7.47;1.60;;;;;;;-146.64;100.00;60305.66;4989512;28;20489;-75
2022/07/03 06:05:21;;;;;;;4.97;1.47;;;;;;;-146.64;100.00;38703.38;4992973;28;20088;-75
2022/07/03 06:07:49;;;;;;;11.00;1.83;;;;;;;-146.64;100.00;36866.25;5002128;28;20026;-76
2022/07/03 06:10:15;;;;;;;11.15;2.40;;;;;;;-146.64;100.00;49912.47;5004759;28;20022;-78
2022/07/03 06:12:40;;;;;;;6.97;1.40;;;;;;;-146.64;100.00;39562.91;4984873;28;20029;-77
2022/07/03 06:15:06;;;;;;;4.23;1.20;;;;;;;-146.64;100.00;36158.63;5003380;28;20022;-80
2022/07/03 06:17:35;;;;;;;3.87;1.60;;;;;;;-146.64;100.00;35651.53;5003026;28;20358;-79
2022/07/03 06:20:01;;;;;;;7.38;1.40;;;;;;;-146.64;100.00;35982.78;4991131;28;20042;-81
2022/07/03 06:22:26;;;;;;;5.40;1.30;;;;;;;-146.64;100.00;35868.28;4989259;28;20315;-76
2022/07/03 06:24:52;;;;;;;5.88;1.30;;;;;;;-146.64;100.00;35943.94;5005722;28;20358;-78
2022/07/03 06:27:17;;;;;;;7.57;2.90;;;;;;;-146.64;97.03;35900.97;5000690;28;20030;-77
2022/07/03 06:29:43;;;;;;;4.73;1.00;;;;;;;-146.64;93.15;36179.09;5008019;28;20477;-77
2022/07/03 06:32:08;;;;;;;6.78;0.77;;;;;;;-146.64;93.31;36275.22;4999950;28;20062;-78
2022/07/03 06:34:34;;;;;;;3.13;1.30;;;;;;;-146.64;97.89;36455.16;4990229;28;20125;-77
2022/07/03 06:36:59;;;;;;;8.47;1.40;;;;;;;-146.64;100.00;36371.31;5002184;28;20504;-78
2022/07/03 06:39:25;;;;;;;5.43;1.33;;;;;;;-146.64;100.00;36316.09;5024834;28;20430;-78
2022/07/03 06:41:53;;;;;;;6.33;1.20;;;;;;;-146.64;100.00;36042.09;4988814;28;20061;-78
2022/07/03 06:44:18;;;;;;;5.15;1.73;;;;;;;-146.64;100.00;35945.97;5006139;28;20056;-78
2022/07/03 06:46:44;;;;;;;8.87;1.23;;;;;;;-146.64;100.00;35853.97;4989308;28;20022;-78
2022/07/03 06:49:09;;;;;;;5.93;1.83;;;;;;;-146.64;92.84;35950.06;4993005;28;20129;-79
2022/07/03 06:51:35;;;;;;;11.20;1.73;;;;;;;-146.64;90.29;35921.44;4990481;28;20132;-80
2022/07/03 06:54:01;;;;;;;4.63;1.50;;;;;;;-146.64;87.18;35725.13;5008066;28;20049;-78
2022/07/03 06:56:26;;;;;;;4.25;1.60;;;;;;;-146.64;85.72;35823.28;4981577;28;20034;-79
2022/07/03 06:58:52;;;;;;;8.27;1.93;;;;;;;-146.64;84.12;35890.75;5002583;28;20391;-78
2022/07/03 07:01:18;;;;;;;3.90;1.20;;;;;;;-146.64;83.63;35723.09;4993413;28;20118;-81
2022/07/03 07:03:44;;;;;;;8.15;1.45;;;;;;;-146.64;83.35;35984.81;4998937;28;20025;-78
2022/07/03 07:06:10;;;;;;;;;;;;;;;-146.64;83.93;35784.44;5007027;28;20105;-81
2022/07/03 07:08:35;;;;;;;5.32;1.42;;;;;;;-146.64;87.63;35988.91;5003339;28;20013;-78
2022/07/03 07:11:01;;;;;;;6.50;2.13;;;;;;;-146.64;82.41;35966.41;5004210;28;20785;-79
2022/07/03 07:13:28;;;;;;;6.10;1.70;;;;;;;-146.64;82.91;36035.94;4984760;28;20037;-78
2022/07/03 07:15:53;;;;;;;5.70;1.40;;;;;;;-146.64;88.53;36309.97;4999364;28;20121;-78
2022/07/03 07:18:18;;;;;;;7.40;1.73;;;;;;;-146.64;91.21;36314.06;4991222;28;20124;-78
2022/07/03 07:20:44;;;;;;;5.20;1.17;;;;;;;-146.64;91.90;36395.88;4985367;28;20657;-78
2022/07/03 07:23:09;;;;;;;12.27;1.83;;;;;;;-146.64;94.77;36491.97;4990357;28;20030;-77
2022/07/03 07:25:35;;;;;;;8.30;2.30;;;;;;;-146.64;98.86;36391.78;5008585;28;20338;-80
2022/07/03 07:28:01;;;;;;;4.82;1.52;;;;;;;-146.64;100.00;36348.81;5008263;28;20037;-80
2022/07/03 07:30:26;;;;;;;4.63;1.00;;;;;;;-146.64;100.00;36330.41;4999619;28;20121;-79
2022/07/03 07:32:52;;;;;;;6.10;1.20;;;;;;;-146.64;100.00;36183.19;5007075;28;20452;-79
2022/07/03 07:35:18;;;;;;;7.43;2.23;;;;;;;-146.64;97.62;36127.97;5006954;28;20084;-79
2022/07/03 07:37:44;;;;;;;8.02;1.63;;;;;;;-146.64;98.98;36567.66;5008004;28;20026;-79
2022/07/03 07:40:09;;;;;;;5.55;1.55;;;;;;;-146.64;100.00;36348.81;4979658;28;20389;-80
2022/07/03 07:42:35;;;;;;;6.88;1.50;;;;;;;-146.64;100.00;36228.16;5010008;28;20091;-80
2022/07/03 07:45:00;;;;;;;3.87;1.70;;;;;;;-146.64;99.03;36391.78;4991688;28;20042;-81
2022/07/03 07:47:26;;;;;;;5.03;1.50;;;;;;;-146.64;100.00;36295.66;5010888;28;20040;-80
2022/07/03 07:49:51;;;;;;;13.10;1.90;;;;;;;-146.64;98.31;36526.75;5011802;28;20033;-80
2022/07/03 07:52:18;;;;;;;9.57;1.50;;;;;;;-146.64;96.64;36469.50;5008085;28;20033;-78
2022/07/03 07:54:43;;;;;;;8.27;2.45;;;;;;;-146.64;95.57;36316.09;5004998;28;20145;-78
2022/07/03 07:57:10;;;;;;;12.10;1.40;;;;;;;-146.64;92.52;36524.72;5007454;28;20035;-80
2022/07/03 07:59:35;;;;;;;3.78;1.20;;;;;;;-146.64;93.09;36436.75;5010644;28;20051;-80
2022/07/03 08:07:29;;;;;;;6.15;1.48;;;;;;;-146.64;96.87;36361.09;4999285;28;20041;-79
2022/07/03 08:09:54;;;;;;;9.17;1.73;;;;;;;-146.64;94.36;36248.63;5007452;28;20025;-81
2022/07/03 08:12:19;;;;;;;6.37;2.10;;;;;;;-146.64;94.65;36240.44;5018385;28;20357;-80
2022/07/03 08:14:45;;;;;;;7.87;2.10;;;;;;;-146.64;94.10;36344.75;5005013;28;20025;-80
2022/07/03 08:17:10;;;;;;;6.33;1.40;;;;;;;-146.64;94.22;36260.88;4996382;28;20061;-81
2022/07/03 08:19:36;;;;;;;5.47;1.47;;;;;;;-146.64;94.30;36301.78;5002883;28;20057;-80
2022/07/03 08:22:03;;;;;;;6.20;1.30;;;;;;;-146.64;94.63;36408.13;5006012;28;20560;-80
2022/07/03 08:24:28;;;;;;;3.22;1.52;;;;;;;-146.64;95.02;35941.88;5006190;28;20405;-81
2022/07/03 08:26:54;;;;;;;4.63;1.60;;;;;;;-146.64;94.06;36091.16;5008923;28;20030;-79
2022/07/03 08:29:22;;;;;;;3.33;1.50;;;;;;;-146.64;93.27;36305.88;5004597;28;20088;-80
2022/07/03 08:31:47;;;;;;;7.55;1.38;;;;;;;-146.64;92.67;36162.72;5002211;28;20466;-79
2022/07/03 08:34:13;;;;;;;5.47;1.60;;;;;;;-146.64;92.16;36191.34;4989353;28;20033;-80
2022/07/03 08:36:41;;;;;;;5.78;1.38;;;;;;;-146.64;90.55;36269.06;4984611;28;20073;-80
2022/07/03 08:39:07;;;;;;;4.80;1.63;;;;;;;-146.64;91.45;36432.69;5005217;28;20022;-80
2022/07/03 08:41:33;;;;;;;3.80;1.30;;;;;;;-146.64;91.64;36217.94;5000105;28;20413;-82
2022/07/03 08:43:59;;;;;;;4.28;1.70;;;;;;;-146.64;89.23;36269.06;4998684;28;20344;-81
2022/07/03 08:46:26;;;;;;;4.72;1.63;;;;;;;-146.64;89.05;36412.22;4991054;28;20036;-81
2022/07/03 08:48:53;;;;;;;7.95;1.60;;;;;;;-146.64;90.68;36485.84;5005614;28;20026;-81
2022/07/03 08:51:19;;;;;;;7.25;1.60;;;;;;;-146.64;91.61;36297.69;5002748;28;20045;-81
2022/07/03 08:53:45;;;;;;;;;;;;;;;-146.64;89.32;36352.91;5014059;28;20137;-80
2022/07/03 08:56:10;;;;;;;4.82;1.45;;;;;;;-146.64;89.38;36322.25;5006136;28;20008;-81
2022/07/03 08:58:36;;;;;;;4.27;1.33;;;;;;;-146.64;86.56;36485.84;5025717;28;20052;-80
2022/07/03 09:01:01;;;;;;;6.70;1.97;;;;;;;-146.64;85.83;36330.41;4982385;28;20034;-78
2022/07/03 09:03:28;;;;;;;7.10;1.70;;;;;;;-146.64;88.48;36375.41;5002324;28;20112;-79
2022/07/03 09:05:53;;;;;;;;;;;;;;;-146.64;89.34;36346.78;4991389;28;20057;-79
2022/07/03 09:08:19;;;;;;;5.13;1.73;;;;;;;-146.64;87.24;36657.63;5008466;28;19963;-77
2022/07/03 09:10:45;;;;;;;10.60;1.37;;;;;;;-146.64;89.98;36453.13;4988400;28;20038;-79
2022/07/03 09:13:11;;;;;;;5.10;1.60;;;;;;;-146.64;90.58;36657.63;5007382;28;20045;-79
2022/07/03 09:15:36;;;;;;;6.05;1.70;;;;;;;-146.64;87.93;36569.69;4991571;28;20036;-81
2022/07/03 09:18:06;;;;;;;4.40;1.37;;;;;;;-146.64;84.06;36612.66;4997705;28;20026;-81
2022/07/03 09:20:40;;;;;;;3.38;1.60;;;;;;;-146.64;83.61;36716.94;5000744;28;20041;-82
2022/07/03 09:23:19;;;;;;;8.30;1.40;;;;;;;-146.64;82.27;36522.66;4999848;28;20057;-80
2022/07/03 09:26:02;;;;;;;3.42;1.17;;;;;;;-146.64;83.36;36389.72;5004097;28;20100;-79
2022/07/03 09:28:50;;;;;;;4.38;1.30;;;;;;;-146.64;83.40;36424.50;5005010;28;20025;-79
2022/07/03 09:31:27;;;;;;;4.38;1.38;;;;;;;-146.64;83.79;36250.66;5022503;28;20168;-80
2022/07/03 09:34:07;;;;;;;5.78;1.70;;;;;;;-146.64;84.92;36563.56;5004857;28;20371;-79
2022/07/03 09:36:50;;;;;;;5.93;1.80;;;;;;;-146.64;85.07;36402.00;5013160;28;20106;-80
2022/07/03 09:39:25;;;;;;;3.85;1.60;;;;;;;-146.64;84.74;36461.31;5007184;28;20022;-80
2022/07/03 09:41:52;;;;;;;6.00;1.63;;;;;;;-146.64;84.78;36575.84;5000173;28;20481;-80
2022/07/03 09:44:48;;;;;;;9.70;1.92;;;;;;;-146.64;85.08;36710.81;4989705;28;20096;-80
2022/07/03 09:47:20;;;;;;;5.55;2.25;;;;;;;-146.64;85.85;36649.47;4996694;28;20084;-82
2022/07/03 09:50:02;;;;;;;4.55;2.00;;;;;;;-146.64;86.34;36518.56;4988136;28;20080;-80
2022/07/03 09:52:33;;;;;;;10.38;1.90;;;;;;;-146.64;86.97;36674.00;4986187;28;20042;-79
2022/07/03 09:55:02;;;;;;;11.82;2.97;;;;;;;-146.64;88.55;36723.09;5014008;28;20497;-81
2022/07/03 09:57:28;;;;;;;6.60;1.58;;;;;;;-146.64;90.69;36645.38;5005622;28;20081;-79
2022/07/03 10:00:20;;;;;;;6.05;1.70;;;;;;;-146.64;92.57;36575.84;4998492;28;20065;-81
2022/07/03 10:03:05;;;;;;;2.67;1.73;;;;;;;-146.64;92.80;36498.13;5006837;28;20029;-80
2022/07/03 10:05:42;;;;;;;9.45;1.60;;;;;;;-146.64;91.57;36620.81;5003022;28;20041;-78
2022/07/03 10:08:12;;;;;;;5.53;1.70;;;;;;;-146.64;89.77;36690.38;4983778;28;20030;-77
2022/07/03 10:10:43;;;;;;;9.40;2.35;;;;;;;-146.64;88.44;36706.72;5002987;28;20034;-78
2022/07/03 10:13:09;;;;;;;4.43;1.45;;;;;;;-146.64;84.61;36612.66;4981352;28;20077;-79
2022/07/03 10:15:38;;;;;;;3.85;1.20;;;;;;;-146.64;83.24;36457.22;4991387;28;20041;-79
2022/07/03 10:18:08;;;;;;;4.88;1.50;;;;;;;-146.64;82.13;36301.78;5007940;28;20443;-80
2022/07/03 10:20:41;;;;;;;7.03;1.55;;;;;;;-146.64;81.83;36624.91;4993174;28;20057;-80
2022/07/03 10:23:07;;;;;;;3.10;1.30;;;;;;;-146.64;81.59;36633.09;4987737;28;20038;-80
2022/07/03 10:25:33;;;;;;;9.53;1.70;;;;;;;-146.64;80.13;36473.56;5003500;28;20045;-80
2022/07/03 10:27:58;;;;;;;4.47;1.25;;;;;;;-146.64;77.52;36240.44;5004621;28;20030;-80
2022/07/03 10:30:24;;;;;;;4.70;1.25;;;;;;;-146.64;75.38;36244.53;5003932;28;20038;-79
2022/07/03 10:32:52;;;;;;;6.25;1.30;;;;;;;-146.64;77.96;36612.66;5000256;28;20032;-79
2022/07/03 10:35:32;;;;;;;2.53;1.15;;;;;;;-146.64;81.00;36817.16;4987272;28;20120;-79
2022/07/03 10:38:03;;;;;;;4.15;1.20;;;;;;;-146.64;83.44;36776.25;5007275;28;20022;-78
2022/07/03 10:46:18;;;;;;;4.45;1.02;;;;;;;-146.64;81.93;36784.44;4997436;28;20504;-79
2022/07/03 10:49:06;;;;;;;5.03;1.17;;;;;;;-146.64;82.58;36882.63;4991453;28;20477;-79
2022/07/03 10:51:50;;;;;;;3.83;1.13;;;;;;;-146.64;82.50;36792.63;4997645;28;20441;-79
2022/07/03 10:54:20;;;;;;;2.08;1.30;;;;;;;-146.64;82.77;36743.53;5005738;28;20053;-77
2022/07/03 10:57:00;;;;;;;4.25;1.25;;;;;;;-146.64;81.14;36804.91;4994169;28;20033;-78
2022/07/03 10:59:32;;;;;;;1.73;1.33;;;;;;;-146.64;78.32;36626.97;4990779;28;20512;-77
2022/07/03 11:02:31;;;;;;;2.83;0.90;;;;;;;-146.64;77.66;36530.84;5021478;28;20497;-78
2022/07/03 11:04:59;;;;;;;2.55;1.48;;;;;;;-146.64;76.03;36457.22;5003774;28;20030;-78
2022/07/03 11:07:34;;;;;;;2.38;0.88;;;;;;;-146.64;75.07;36322.25;5023168;28;20477;-78
2022/07/03 11:10:08;;;;;;;4.22;1.10;;;;;;;-146.64;74.71;36215.91;5016611;28;20030;-78
2022/07/03 11:12:52;;;;;;;2.10;0.90;;;;;;;-146.64;73.44;36354.97;5006797;28;20045;-78
2022/07/03 11:15:27;;;;;;;4.07;0.95;;;;;;;-146.64;72.32;36209.75;5009172;28;20109;-79
2022/07/03 11:18:24;;;;;;;3.20;1.35;;;;;;;-146.64;74.45;36731.28;4993495;28;20047;-78
2022/07/03 11:20:49;;;;;;;3.67;1.40;;;;;;;-146.64;74.98;36784.44;4986760;28;20104;-78
2022/07/03 11:23:30;;;;;;;3.47;1.13;;;;;;;-146.64;75.51;36988.97;5010281;28;20448;-79
2022/07/03 11:26:00;;;;;;;2.88;1.48;;;;;;;-146.64;75.92;36943.97;5005489;28;20102;-78
2022/07/03 11:28:32;;;;;;;2.97;1.10;;;;;;;-146.64;76.07;36735.38;4992180;28;20444;-78
2022/07/03 11:31:16;;;;;;;4.28;1.58;;;;;;;-146.64;75.28;36588.09;5018094;28;20144;-79
2022/07/03 11:33:51;;;;;;;6.60;2.58;;;;;;;-146.64;78.99;36907.16;4998521;28;20042;-78
2022/07/03 11:36:16;;;;;;;6.25;2.00;;;;;;;-146.64;80.80;36956.25;4996857;28;20037;-78
2022/07/03 11:38:46;;;;;;;8.30;2.37;;;;;;;-146.64;82.30;36890.81;5009059;28;20497;-78